<?xml version="1.0" encoding="UTF-8" standalone="no" ?>
<gpx xmlns="http://www.topografix.com/GPX/1/1" xmlns:xsi="http://www.w3.org/2001/XMLSchema-instance" xsi:schemaLocation="http://www.topografix.com/GPX/1/1 http://www.topografix.com/GPX/1/1/gpx.xsd" version="1.1" creator="VisuGPX - https://www.visugpx.com">
  <metadata>
    <name>triathlon vtt 21 km+ 523</name>
    <desc><![CDATA[triathlon les Roches de Condrieu vtt]]></desc>
  </metadata>
  <trk>
    <name><![CDATA[triathlon vtt 21 km+ 523_1]]></name>
    <trkseg>
      <trkpt lat="45.45814" lon="4.78009">
        <ele>144.2</ele>
        <time>2019-08-09T13:49:00.000Z</time>
      </trkpt>
      <trkpt lat="45.45835" lon="4.78022">
        <ele>144.2</ele>
        <time>2019-08-09T13:49:00.474Z</time>
      </trkpt>
      <trkpt lat="45.45858" lon="4.78048">
        <ele>143.1</ele>
        <time>2019-08-09T13:49:01.045Z</time>
      </trkpt>
      <trkpt lat="45.45882" lon="4.78086">
        <ele>142</ele>
        <time>2019-08-09T13:49:01.772Z</time>
      </trkpt>
      <trkpt lat="45.459" lon="4.78131">
        <ele>142</ele>
        <time>2019-08-09T13:49:02.491Z</time>
      </trkpt>
      <trkpt lat="45.45912" lon="4.7819">
        <ele>143.3</ele>
        <time>2019-08-09T13:49:03.357Z</time>
      </trkpt>
      <trkpt lat="45.45894" lon="4.78225">
        <ele>144.5</ele>
        <time>2019-08-09T13:49:03.964Z</time>
      </trkpt>
      <trkpt lat="45.45885" lon="4.78247">
        <ele>144.8</ele>
        <time>2019-08-09T13:49:04.325Z</time>
      </trkpt>
      <trkpt lat="45.4589" lon="4.78271">
        <ele>146.2</ele>
        <time>2019-08-09T13:49:04.667Z</time>
      </trkpt>
      <trkpt lat="45.4591" lon="4.7828">
        <ele>146.4</ele>
        <time>2019-08-09T13:49:05.090Z</time>
      </trkpt>
      <trkpt lat="45.45927" lon="4.7829">
        <ele>147.1</ele>
        <time>2019-08-09T13:49:05.473Z</time>
      </trkpt>
      <trkpt lat="45.45947" lon="4.78302">
        <ele>147.3</ele>
        <time>2019-08-09T13:49:05.893Z</time>
      </trkpt>
      <trkpt lat="45.45965" lon="4.78301">
        <ele>147.3</ele>
        <time>2019-08-09T13:49:06.264Z</time>
      </trkpt>
      <trkpt lat="45.45974" lon="4.78286">
        <ele>147.2</ele>
        <time>2019-08-09T13:49:06.543Z</time>
      </trkpt>
      <trkpt lat="45.45984" lon="4.78282">
        <ele>147.2</ele>
        <time>2019-08-09T13:49:06.744Z</time>
      </trkpt>
      <trkpt lat="45.45983" lon="4.78322">
        <ele>147.6</ele>
        <time>2019-08-09T13:49:07.302Z</time>
      </trkpt>
      <trkpt lat="45.45985" lon="4.78345">
        <ele>148.1</ele>
        <time>2019-08-09T13:49:07.635Z</time>
      </trkpt>
      <trkpt lat="45.46012" lon="4.78367">
        <ele>147.3</ele>
        <time>2019-08-09T13:49:08.264Z</time>
      </trkpt>
      <trkpt lat="45.4598" lon="4.78609">
        <ele>152.7</ele>
        <time>2019-08-09T13:49:11.721Z</time>
      </trkpt>
      <trkpt lat="45.46175" lon="4.78732">
        <ele>149.4</ele>
        <time>2019-08-09T13:49:15.994Z</time>
      </trkpt>
      <trkpt lat="45.46222" lon="4.78774">
        <ele>150.8</ele>
        <time>2019-08-09T13:49:17.106Z</time>
      </trkpt>
      <trkpt lat="45.46492" lon="4.78544">
        <ele>145.3</ele>
        <time>2019-08-09T13:49:23.409Z</time>
      </trkpt>
      <trkpt lat="45.4667" lon="4.78624">
        <ele>145.7</ele>
        <time>2019-08-09T13:49:27.149Z</time>
      </trkpt>
      <trkpt lat="45.46802" lon="4.78846">
        <ele>146.6</ele>
        <time>2019-08-09T13:49:31.239Z</time>
      </trkpt>
      <trkpt lat="45.46749" lon="4.79028">
        <ele>154</ele>
        <time>2019-08-09T13:49:34.009Z</time>
      </trkpt>
      <trkpt lat="45.4675" lon="4.79053">
        <ele>154.9</ele>
        <time>2019-08-09T13:49:34.361Z</time>
      </trkpt>
      <trkpt lat="45.46904" lon="4.79078">
        <ele>151.1</ele>
        <time>2019-08-09T13:49:37.467Z</time>
      </trkpt>
      <trkpt lat="45.46893" lon="4.79124">
        <ele>165.3</ele>
        <time>2019-08-09T13:49:38.150Z</time>
      </trkpt>
      <trkpt lat="45.46948" lon="4.79144">
        <ele>163.1</ele>
        <time>2019-08-09T13:49:39.287Z</time>
      </trkpt>
      <trkpt lat="45.47018" lon="4.79157">
        <ele>157.8</ele>
        <time>2019-08-09T13:49:40.702Z</time>
      </trkpt>
      <trkpt lat="45.47043" lon="4.79195">
        <ele>170.2</ele>
        <time>2019-08-09T13:49:41.434Z</time>
      </trkpt>
      <trkpt lat="45.47154" lon="4.79307">
        <ele>183</ele>
        <time>2019-08-09T13:49:44.159Z</time>
      </trkpt>
      <trkpt lat="45.47289" lon="4.7951">
        <ele>193.8</ele>
        <time>2019-08-09T13:49:48.090Z</time>
      </trkpt>
      <trkpt lat="45.47318" lon="4.79592">
        <ele>199.6</ele>
        <time>2019-08-09T13:49:49.381Z</time>
      </trkpt>
      <trkpt lat="45.47362" lon="4.79673">
        <ele>195.3</ele>
        <time>2019-08-09T13:49:50.821Z</time>
      </trkpt>
      <trkpt lat="45.47276" lon="4.79602">
        <ele>209.1</ele>
        <time>2019-08-09T13:49:52.812Z</time>
      </trkpt>
      <trkpt lat="45.47187" lon="4.79456">
        <ele>216.1</ele>
        <time>2019-08-09T13:49:55.531Z</time>
      </trkpt>
      <trkpt lat="45.47194" lon="4.79586">
        <ele>233.8</ele>
        <time>2019-08-09T13:49:57.363Z</time>
      </trkpt>
      <trkpt lat="45.47123" lon="4.79622">
        <ele>255.8</ele>
        <time>2019-08-09T13:49:58.873Z</time>
      </trkpt>
      <trkpt lat="45.47031" lon="4.79717">
        <ele>264.3</ele>
        <time>2019-08-09T13:50:01.149Z</time>
      </trkpt>
      <trkpt lat="45.4701" lon="4.79763">
        <ele>261.2</ele>
        <time>2019-08-09T13:50:01.920Z</time>
      </trkpt>
      <trkpt lat="45.46965" lon="4.7976">
        <ele>275.4</ele>
        <time>2019-08-09T13:50:02.823Z</time>
      </trkpt>
      <trkpt lat="45.46944" lon="4.79816">
        <ele>275.4</ele>
        <time>2019-08-09T13:50:03.715Z</time>
      </trkpt>
      <trkpt lat="45.46915" lon="4.79826">
        <ele>283.8</ele>
        <time>2019-08-09T13:50:04.313Z</time>
      </trkpt>
      <trkpt lat="45.46902" lon="4.79844">
        <ele>282.8</ele>
        <time>2019-08-09T13:50:04.676Z</time>
      </trkpt>
      <trkpt lat="45.46917" lon="4.79864">
        <ele>272.6</ele>
        <time>2019-08-09T13:50:05.088Z</time>
      </trkpt>
      <trkpt lat="45.46938" lon="4.79887">
        <ele>270.4</ele>
        <time>2019-08-09T13:50:05.619Z</time>
      </trkpt>
      <trkpt lat="45.46934" lon="4.79897">
        <ele>270.5</ele>
        <time>2019-08-09T13:50:05.781Z</time>
      </trkpt>
      <trkpt lat="45.46921" lon="4.79928">
        <ele>274.8</ele>
        <time>2019-08-09T13:50:06.289Z</time>
      </trkpt>
      <trkpt lat="45.46982" lon="4.79894">
        <ele>267.8</ele>
        <time>2019-08-09T13:50:07.601Z</time>
      </trkpt>
      <trkpt lat="45.47018" lon="4.79904">
        <ele>264.3</ele>
        <time>2019-08-09T13:50:08.336Z</time>
      </trkpt>
      <trkpt lat="45.47088" lon="4.7987">
        <ele>259.3</ele>
        <time>2019-08-09T13:50:09.818Z</time>
      </trkpt>
      <trkpt lat="45.47113" lon="4.79864">
        <ele>258.6</ele>
        <time>2019-08-09T13:50:10.326Z</time>
      </trkpt>
      <trkpt lat="45.47139" lon="4.79871">
        <ele>258.8</ele>
        <time>2019-08-09T13:50:10.856Z</time>
      </trkpt>
      <trkpt lat="45.47145" lon="4.79889">
        <ele>260.1</ele>
        <time>2019-08-09T13:50:11.136Z</time>
      </trkpt>
      <trkpt lat="45.47139" lon="4.79907">
        <ele>261.3</ele>
        <time>2019-08-09T13:50:11.416Z</time>
      </trkpt>
      <trkpt lat="45.47127" lon="4.79932">
        <ele>271.3</ele>
        <time>2019-08-09T13:50:11.842Z</time>
      </trkpt>
      <trkpt lat="45.47096" lon="4.79945">
        <ele>273.9</ele>
        <time>2019-08-09T13:50:12.490Z</time>
      </trkpt>
      <trkpt lat="45.47046" lon="4.7999">
        <ele>282.4</ele>
        <time>2019-08-09T13:50:13.675Z</time>
      </trkpt>
      <trkpt lat="45.47036" lon="4.79999">
        <ele>283.1</ele>
        <time>2019-08-09T13:50:13.912Z</time>
      </trkpt>
      <trkpt lat="45.47055" lon="4.80008">
        <ele>292.8</ele>
        <time>2019-08-09T13:50:14.313Z</time>
      </trkpt>
      <trkpt lat="45.47065" lon="4.80033">
        <ele>294.3</ele>
        <time>2019-08-09T13:50:14.717Z</time>
      </trkpt>
      <trkpt lat="45.47014" lon="4.8015">
        <ele>306.5</ele>
        <time>2019-08-09T13:50:16.653Z</time>
      </trkpt>
      <trkpt lat="45.47045" lon="4.80163">
        <ele>305.1</ele>
        <time>2019-08-09T13:50:17.301Z</time>
      </trkpt>
      <trkpt lat="45.47055" lon="4.80196">
        <ele>307.9</ele>
        <time>2019-08-09T13:50:17.806Z</time>
      </trkpt>
      <trkpt lat="45.47097" lon="4.80232">
        <ele>308.3</ele>
        <time>2019-08-09T13:50:18.788Z</time>
      </trkpt>
      <trkpt lat="45.4715" lon="4.80188">
        <ele>306.2</ele>
        <time>2019-08-09T13:50:20.017Z</time>
      </trkpt>
      <trkpt lat="45.4718" lon="4.80172">
        <ele>305.6</ele>
        <time>2019-08-09T13:50:20.659Z</time>
      </trkpt>
      <trkpt lat="45.47256" lon="4.80166">
        <ele>302.6</ele>
        <time>2019-08-09T13:50:22.184Z</time>
      </trkpt>
      <trkpt lat="45.47285" lon="4.80202">
        <ele>305.4</ele>
        <time>2019-08-09T13:50:22.954Z</time>
      </trkpt>
      <trkpt lat="45.47382" lon="4.8021">
        <ele>300.4</ele>
        <time>2019-08-09T13:50:24.901Z</time>
      </trkpt>
      <trkpt lat="45.47462" lon="4.80266">
        <ele>302.8</ele>
        <time>2019-08-09T13:50:26.687Z</time>
      </trkpt>
      <trkpt lat="45.47529" lon="4.80302">
        <ele>295</ele>
        <time>2019-08-09T13:50:28.122Z</time>
      </trkpt>
      <trkpt lat="45.47558" lon="4.80349">
        <ele>297.2</ele>
        <time>2019-08-09T13:50:29.002Z</time>
      </trkpt>
      <trkpt lat="45.47562" lon="4.80406">
        <ele>298.4</ele>
        <time>2019-08-09T13:50:29.807Z</time>
      </trkpt>
      <trkpt lat="45.4754" lon="4.80506">
        <ele>301.4</ele>
        <time>2019-08-09T13:50:31.280Z</time>
      </trkpt>
      <trkpt lat="45.47517" lon="4.80605">
        <ele>307.6</ele>
        <time>2019-08-09T13:50:32.746Z</time>
      </trkpt>
      <trkpt lat="45.47509" lon="4.80655">
        <ele>309.5</ele>
        <time>2019-08-09T13:50:33.467Z</time>
      </trkpt>
      <trkpt lat="45.47493" lon="4.80859">
        <ele>309.6</ele>
        <time>2019-08-09T13:50:36.351Z</time>
      </trkpt>
      <trkpt lat="45.47527" lon="4.80986">
        <ele>307.3</ele>
        <time>2019-08-09T13:50:38.261Z</time>
      </trkpt>
      <trkpt lat="45.47498" lon="4.81229">
        <ele>314.5</ele>
        <time>2019-08-09T13:50:41.725Z</time>
      </trkpt>
      <trkpt lat="45.47492" lon="4.81245">
        <ele>314.8</ele>
        <time>2019-08-09T13:50:41.980Z</time>
      </trkpt>
      <trkpt lat="45.47634" lon="4.81437">
        <ele>306.5</ele>
        <time>2019-08-09T13:50:45.901Z</time>
      </trkpt>
      <trkpt lat="45.478" lon="4.81509">
        <ele>298.9</ele>
        <time>2019-08-09T13:50:49.378Z</time>
      </trkpt>
      <trkpt lat="45.47954" lon="4.81671">
        <ele>284.4</ele>
        <time>2019-08-09T13:50:53.213Z</time>
      </trkpt>
      <trkpt lat="45.47987" lon="4.81752">
        <ele>281.9</ele>
        <time>2019-08-09T13:50:54.529Z</time>
      </trkpt>
      <trkpt lat="45.48007" lon="4.81872">
        <ele>273.6</ele>
        <time>2019-08-09T13:50:56.262Z</time>
      </trkpt>
      <trkpt lat="45.48045" lon="4.81938">
        <ele>272.8</ele>
        <time>2019-08-09T13:50:57.462Z</time>
      </trkpt>
      <trkpt lat="45.48069" lon="4.8201">
        <ele>272</ele>
        <time>2019-08-09T13:50:58.582Z</time>
      </trkpt>
      <trkpt lat="45.48083" lon="4.82149">
        <ele>270</ele>
        <time>2019-08-09T13:51:00.555Z</time>
      </trkpt>
      <trkpt lat="45.48149" lon="4.82137">
        <ele>266.6</ele>
        <time>2019-08-09T13:51:01.888Z</time>
      </trkpt>
      <trkpt lat="45.4825" lon="4.82167">
        <ele>251.9</ele>
        <time>2019-08-09T13:51:03.955Z</time>
      </trkpt>
      <trkpt lat="45.48314" lon="4.82137">
        <ele>240.8</ele>
        <time>2019-08-09T13:51:05.305Z</time>
      </trkpt>
      <trkpt lat="45.48376" lon="4.82178">
        <ele>227</ele>
        <time>2019-08-09T13:51:06.674Z</time>
      </trkpt>
      <trkpt lat="45.48409" lon="4.82235">
        <ele>224.4</ele>
        <time>2019-08-09T13:51:07.713Z</time>
      </trkpt>
      <trkpt lat="45.48462" lon="4.82288">
        <ele>214.1</ele>
        <time>2019-08-09T13:51:09.010Z</time>
      </trkpt>
      <trkpt lat="45.48518" lon="4.82295">
        <ele>199.5</ele>
        <time>2019-08-09T13:51:10.137Z</time>
      </trkpt>
      <trkpt lat="45.48589" lon="4.82355">
        <ele>183.6</ele>
        <time>2019-08-09T13:51:11.791Z</time>
      </trkpt>
      <trkpt lat="45.48566" lon="4.82364">
        <ele>197.9</ele>
        <time>2019-08-09T13:51:12.269Z</time>
      </trkpt>
      <trkpt lat="45.4857" lon="4.82374">
        <ele>198.1</ele>
        <time>2019-08-09T13:51:12.431Z</time>
      </trkpt>
      <trkpt lat="45.48609" lon="4.8239">
        <ele>182</ele>
        <time>2019-08-09T13:51:13.244Z</time>
      </trkpt>
      <trkpt lat="45.48643" lon="4.82375">
        <ele>176.1</ele>
        <time>2019-08-09T13:51:13.957Z</time>
      </trkpt>
      <trkpt lat="45.48655" lon="4.82363">
        <ele>173.6</ele>
        <time>2019-08-09T13:51:14.251Z</time>
      </trkpt>
      <trkpt lat="45.48672" lon="4.82361">
        <ele>161.9</ele>
        <time>2019-08-09T13:51:14.593Z</time>
      </trkpt>
      <trkpt lat="45.48705" lon="4.82497">
        <ele>167.3</ele>
        <time>2019-08-09T13:51:16.615Z</time>
      </trkpt>
      <trkpt lat="45.48766" lon="4.82605">
        <ele>165.6</ele>
        <time>2019-08-09T13:51:18.563Z</time>
      </trkpt>
      <trkpt lat="45.48781" lon="4.82623">
        <ele>165.6</ele>
        <time>2019-08-09T13:51:18.956Z</time>
      </trkpt>
      <trkpt lat="45.48797" lon="4.82681">
        <ele>170</ele>
        <time>2019-08-09T13:51:19.832Z</time>
      </trkpt>
      <trkpt lat="45.48841" lon="4.82775">
        <ele>165.5</ele>
        <time>2019-08-09T13:51:21.420Z</time>
      </trkpt>
      <trkpt lat="45.48782" lon="4.8272">
        <ele>173.8</ele>
        <time>2019-08-09T13:51:22.832Z</time>
      </trkpt>
      <trkpt lat="45.4871" lon="4.82734">
        <ele>188.2</ele>
        <time>2019-08-09T13:51:24.288Z</time>
      </trkpt>
      <trkpt lat="45.48666" lon="4.82765">
        <ele>198.7</ele>
        <time>2019-08-09T13:51:25.271Z</time>
      </trkpt>
      <trkpt lat="45.48543" lon="4.82815">
        <ele>209.6</ele>
        <time>2019-08-09T13:51:27.834Z</time>
      </trkpt>
      <trkpt lat="45.48387" lon="4.82827">
        <ele>219.9</ele>
        <time>2019-08-09T13:51:30.965Z</time>
      </trkpt>
      <trkpt lat="45.48274" lon="4.82847">
        <ele>223.2</ele>
        <time>2019-08-09T13:51:33.247Z</time>
      </trkpt>
      <trkpt lat="45.48229" lon="4.82858">
        <ele>224.8</ele>
        <time>2019-08-09T13:51:34.162Z</time>
      </trkpt>
      <trkpt lat="45.48139" lon="4.82919">
        <ele>223.4</ele>
        <time>2019-08-09T13:51:36.159Z</time>
      </trkpt>
      <trkpt lat="45.48111" lon="4.8294">
        <ele>223.5</ele>
        <time>2019-08-09T13:51:36.793Z</time>
      </trkpt>
      <trkpt lat="45.48067" lon="4.82942">
        <ele>224.5</ele>
        <time>2019-08-09T13:51:37.675Z</time>
      </trkpt>
      <trkpt lat="45.48049" lon="4.82848">
        <ele>228.6</ele>
        <time>2019-08-09T13:51:39.044Z</time>
      </trkpt>
      <trkpt lat="45.48019" lon="4.82674">
        <ele>238</ele>
        <time>2019-08-09T13:51:41.562Z</time>
      </trkpt>
      <trkpt lat="45.48095" lon="4.82589">
        <ele>242.8</ele>
        <time>2019-08-09T13:51:43.497Z</time>
      </trkpt>
      <trkpt lat="45.48076" lon="4.82557">
        <ele>250.6</ele>
        <time>2019-08-09T13:51:44.086Z</time>
      </trkpt>
      <trkpt lat="45.4807" lon="4.8252">
        <ele>253.4</ele>
        <time>2019-08-09T13:51:44.620Z</time>
      </trkpt>
      <trkpt lat="45.4796" lon="4.82222">
        <ele>269.9</ele>
        <time>2019-08-09T13:51:49.352Z</time>
      </trkpt>
      <trkpt lat="45.47771" lon="4.82189">
        <ele>273</ele>
        <time>2019-08-09T13:51:53.168Z</time>
      </trkpt>
      <trkpt lat="45.47689" lon="4.82114">
        <ele>272.7</ele>
        <time>2019-08-09T13:51:55.120Z</time>
      </trkpt>
      <trkpt lat="45.4768" lon="4.82125">
        <ele>272.5</ele>
        <time>2019-08-09T13:51:55.358Z</time>
      </trkpt>
      <trkpt lat="45.47584" lon="4.82044">
        <ele>273.3</ele>
        <time>2019-08-09T13:51:57.593Z</time>
      </trkpt>
      <trkpt lat="45.47582" lon="4.81955">
        <ele>279.1</ele>
        <time>2019-08-09T13:51:58.844Z</time>
      </trkpt>
      <trkpt lat="45.47483" lon="4.82012">
        <ele>276</ele>
        <time>2019-08-09T13:52:00.983Z</time>
      </trkpt>
      <trkpt lat="45.4747" lon="4.82002">
        <ele>275.3</ele>
        <time>2019-08-09T13:52:01.279Z</time>
      </trkpt>
      <trkpt lat="45.47467" lon="4.81869">
        <ele>282.8</ele>
        <time>2019-08-09T13:52:03.149Z</time>
      </trkpt>
      <trkpt lat="45.47464" lon="4.81799">
        <ele>289.5</ele>
        <time>2019-08-09T13:52:04.134Z</time>
      </trkpt>
      <trkpt lat="45.47464" lon="4.81721">
        <ele>296.5</ele>
        <time>2019-08-09T13:52:05.230Z</time>
      </trkpt>
      <trkpt lat="45.47461" lon="4.81689">
        <ele>297.4</ele>
        <time>2019-08-09T13:52:05.684Z</time>
      </trkpt>
      <trkpt lat="45.47394" lon="4.81674">
        <ele>295.8</ele>
        <time>2019-08-09T13:52:07.043Z</time>
      </trkpt>
      <trkpt lat="45.47318" lon="4.81689">
        <ele>295.1</ele>
        <time>2019-08-09T13:52:08.581Z</time>
      </trkpt>
      <trkpt lat="45.47282" lon="4.81693">
        <ele>294.9</ele>
        <time>2019-08-09T13:52:09.305Z</time>
      </trkpt>
      <trkpt lat="45.47143" lon="4.81685">
        <ele>294.8</ele>
        <time>2019-08-09T13:52:12.093Z</time>
      </trkpt>
      <trkpt lat="45.47152" lon="4.81474">
        <ele>301.5</ele>
        <time>2019-08-09T13:52:15.064Z</time>
      </trkpt>
      <trkpt lat="45.47276" lon="4.8138">
        <ele>312.4</ele>
        <time>2019-08-09T13:52:17.878Z</time>
      </trkpt>
      <trkpt lat="45.47281" lon="4.81359">
        <ele>312.5</ele>
        <time>2019-08-09T13:52:18.190Z</time>
      </trkpt>
      <trkpt lat="45.47282" lon="4.81233">
        <ele>313.8</ele>
        <time>2019-08-09T13:52:19.961Z</time>
      </trkpt>
      <trkpt lat="45.47219" lon="4.81221">
        <ele>312.7</ele>
        <time>2019-08-09T13:52:21.241Z</time>
      </trkpt>
      <trkpt lat="45.47232" lon="4.81137">
        <ele>314.9</ele>
        <time>2019-08-09T13:52:22.446Z</time>
      </trkpt>
      <trkpt lat="45.47244" lon="4.81052">
        <ele>314.6</ele>
        <time>2019-08-09T13:52:23.669Z</time>
      </trkpt>
      <trkpt lat="45.47024" lon="4.80897">
        <ele>312.9</ele>
        <time>2019-08-09T13:52:28.585Z</time>
      </trkpt>
      <trkpt lat="45.46994" lon="4.80865">
        <ele>312.6</ele>
        <time>2019-08-09T13:52:29.336Z</time>
      </trkpt>
      <trkpt lat="45.4695" lon="4.80766">
        <ele>313.1</ele>
        <time>2019-08-09T13:52:30.983Z</time>
      </trkpt>
      <trkpt lat="45.47021" lon="4.80444">
        <ele>313</ele>
        <time>2019-08-09T13:52:35.727Z</time>
      </trkpt>
      <trkpt lat="45.47059" lon="4.80266">
        <ele>311.2</ele>
        <time>2019-08-09T13:52:38.342Z</time>
      </trkpt>
      <trkpt lat="45.47087" lon="4.80238">
        <ele>308.9</ele>
        <time>2019-08-09T13:52:39.027Z</time>
      </trkpt>
      <trkpt lat="45.47052" lon="4.80211">
        <ele>308.4</ele>
        <time>2019-08-09T13:52:39.824Z</time>
      </trkpt>
      <trkpt lat="45.47039" lon="4.80172">
        <ele>307.9</ele>
        <time>2019-08-09T13:52:40.431Z</time>
      </trkpt>
      <trkpt lat="45.47012" lon="4.80161">
        <ele>307.2</ele>
        <time>2019-08-09T13:52:40.994Z</time>
      </trkpt>
      <trkpt lat="45.47005" lon="4.80147">
        <ele>306.7</ele>
        <time>2019-08-09T13:52:41.236Z</time>
      </trkpt>
      <trkpt lat="45.46973" lon="4.80131">
        <ele>308.1</ele>
        <time>2019-08-09T13:52:41.916Z</time>
      </trkpt>
      <trkpt lat="45.4689" lon="4.80093">
        <ele>307.2</ele>
        <time>2019-08-09T13:52:43.663Z</time>
      </trkpt>
      <trkpt lat="45.46859" lon="4.80104">
        <ele>307.8</ele>
        <time>2019-08-09T13:52:44.303Z</time>
      </trkpt>
      <trkpt lat="45.46848" lon="4.80121">
        <ele>308.5</ele>
        <time>2019-08-09T13:52:44.628Z</time>
      </trkpt>
      <trkpt lat="45.46833" lon="4.80126">
        <ele>310.1</ele>
        <time>2019-08-09T13:52:44.937Z</time>
      </trkpt>
      <trkpt lat="45.46823" lon="4.80137">
        <ele>310.7</ele>
        <time>2019-08-09T13:52:45.190Z</time>
      </trkpt>
      <trkpt lat="45.46808" lon="4.80137">
        <ele>310.8</ele>
        <time>2019-08-09T13:52:45.491Z</time>
      </trkpt>
      <trkpt lat="45.46791" lon="4.80131">
        <ele>310.9</ele>
        <time>2019-08-09T13:52:45.842Z</time>
      </trkpt>
      <trkpt lat="45.46785" lon="4.80124">
        <ele>310.9</ele>
        <time>2019-08-09T13:52:45.997Z</time>
      </trkpt>
      <trkpt lat="45.4679" lon="4.80104">
        <ele>310.4</ele>
        <time>2019-08-09T13:52:46.295Z</time>
      </trkpt>
      <trkpt lat="45.46792" lon="4.80082">
        <ele>307.9</ele>
        <time>2019-08-09T13:52:46.607Z</time>
      </trkpt>
      <trkpt lat="45.46788" lon="4.80005">
        <ele>306.9</ele>
        <time>2019-08-09T13:52:47.692Z</time>
      </trkpt>
      <trkpt lat="45.46772" lon="4.79995">
        <ele>305</ele>
        <time>2019-08-09T13:52:48.042Z</time>
      </trkpt>
      <trkpt lat="45.46771" lon="4.7995">
        <ele>302.3</ele>
        <time>2019-08-09T13:52:48.675Z</time>
      </trkpt>
      <trkpt lat="45.46683" lon="4.79933">
        <ele>310.5</ele>
        <time>2019-08-09T13:52:50.455Z</time>
      </trkpt>
      <trkpt lat="45.46624" lon="4.79991">
        <ele>315.2</ele>
        <time>2019-08-09T13:52:51.891Z</time>
      </trkpt>
      <trkpt lat="45.46594" lon="4.80022">
        <ele>316.2</ele>
        <time>2019-08-09T13:52:52.633Z</time>
      </trkpt>
      <trkpt lat="45.46617" lon="4.79854">
        <ele>315.6</ele>
        <time>2019-08-09T13:52:55.039Z</time>
      </trkpt>
      <trkpt lat="45.46643" lon="4.79611">
        <ele>311.6</ele>
        <time>2019-08-09T13:52:58.494Z</time>
      </trkpt>
      <trkpt lat="45.46659" lon="4.79538">
        <ele>304</ele>
        <time>2019-08-09T13:52:59.569Z</time>
      </trkpt>
      <trkpt lat="45.46658" lon="4.7949">
        <ele>295</ele>
        <time>2019-08-09T13:53:00.244Z</time>
      </trkpt>
      <trkpt lat="45.46643" lon="4.79442">
        <ele>287.1</ele>
        <time>2019-08-09T13:53:00.983Z</time>
      </trkpt>
      <trkpt lat="45.46641" lon="4.79372">
        <ele>269.5</ele>
        <time>2019-08-09T13:53:01.968Z</time>
      </trkpt>
      <trkpt lat="45.46641" lon="4.79311">
        <ele>251.3</ele>
        <time>2019-08-09T13:53:02.825Z</time>
      </trkpt>
      <trkpt lat="45.46634" lon="4.79293">
        <ele>248.7</ele>
        <time>2019-08-09T13:53:03.114Z</time>
      </trkpt>
      <trkpt lat="45.46562" lon="4.79263">
        <ele>242.7</ele>
        <time>2019-08-09T13:53:04.617Z</time>
      </trkpt>
      <trkpt lat="45.46587" lon="4.79239">
        <ele>234</ele>
        <time>2019-08-09T13:53:05.221Z</time>
      </trkpt>
      <trkpt lat="45.46574" lon="4.79215">
        <ele>223.4</ele>
        <time>2019-08-09T13:53:05.647Z</time>
      </trkpt>
      <trkpt lat="45.46538" lon="4.79197">
        <ele>217.4</ele>
        <time>2019-08-09T13:53:06.411Z</time>
      </trkpt>
      <trkpt lat="45.46516" lon="4.79204">
        <ele>216.8</ele>
        <time>2019-08-09T13:53:06.863Z</time>
      </trkpt>
      <trkpt lat="45.46521" lon="4.79187">
        <ele>213.7</ele>
        <time>2019-08-09T13:53:07.122Z</time>
      </trkpt>
      <trkpt lat="45.46583" lon="4.79142">
        <ele>196.6</ele>
        <time>2019-08-09T13:53:08.516Z</time>
      </trkpt>
      <trkpt lat="45.46581" lon="4.7912">
        <ele>188.8</ele>
        <time>2019-08-09T13:53:08.828Z</time>
      </trkpt>
      <trkpt lat="45.46565" lon="4.7911">
        <ele>186.1</ele>
        <time>2019-08-09T13:53:09.178Z</time>
      </trkpt>
      <trkpt lat="45.46497" lon="4.79103">
        <ele>178.9</ele>
        <time>2019-08-09T13:53:10.544Z</time>
      </trkpt>
      <trkpt lat="45.46428" lon="4.7914">
        <ele>186.4</ele>
        <time>2019-08-09T13:53:12.021Z</time>
      </trkpt>
      <trkpt lat="45.4645" lon="4.79099">
        <ele>180.5</ele>
        <time>2019-08-09T13:53:12.747Z</time>
      </trkpt>
      <trkpt lat="45.46525" lon="4.79041">
        <ele>162.4</ele>
        <time>2019-08-09T13:53:14.457Z</time>
      </trkpt>
      <trkpt lat="45.46492" lon="4.79027">
        <ele>160.9</ele>
        <time>2019-08-09T13:53:15.147Z</time>
      </trkpt>
      <trkpt lat="45.4644" lon="4.79012">
        <ele>160.8</ele>
        <time>2019-08-09T13:53:16.210Z</time>
      </trkpt>
      <trkpt lat="45.46422" lon="4.79013">
        <ele>159.9</ele>
        <time>2019-08-09T13:53:16.571Z</time>
      </trkpt>
      <trkpt lat="45.46412" lon="4.79">
        <ele>158.1</ele>
        <time>2019-08-09T13:53:16.842Z</time>
      </trkpt>
      <trkpt lat="45.46304" lon="4.78943">
        <ele>169.3</ele>
        <time>2019-08-09T13:53:19.150Z</time>
      </trkpt>
      <trkpt lat="45.46246" lon="4.78911">
        <ele>164.5</ele>
        <time>2019-08-09T13:53:20.396Z</time>
      </trkpt>
      <trkpt lat="45.46173" lon="4.78857">
        <ele>162.2</ele>
        <time>2019-08-09T13:53:22.044Z</time>
      </trkpt>
      <trkpt lat="45.46051" lon="4.78768">
        <ele>171.4</ele>
        <time>2019-08-09T13:53:24.790Z</time>
      </trkpt>
      <trkpt lat="45.45909" lon="4.78662">
        <ele>166.5</ele>
        <time>2019-08-09T13:53:28.002Z</time>
      </trkpt>
      <trkpt lat="45.45886" lon="4.78662">
        <ele>166.9</ele>
        <time>2019-08-09T13:53:28.463Z</time>
      </trkpt>
      <trkpt lat="45.45817" lon="4.78714">
        <ele>190.6</ele>
        <time>2019-08-09T13:53:30.027Z</time>
      </trkpt>
      <trkpt lat="45.45763" lon="4.78744">
        <ele>197.6</ele>
        <time>2019-08-09T13:53:31.188Z</time>
      </trkpt>
      <trkpt lat="45.45745" lon="4.78761">
        <ele>208.5</ele>
        <time>2019-08-09T13:53:31.621Z</time>
      </trkpt>
      <trkpt lat="45.45699" lon="4.78795">
        <ele>219.5</ele>
        <time>2019-08-09T13:53:32.659Z</time>
      </trkpt>
      <trkpt lat="45.45679" lon="4.78746">
        <ele>215.1</ele>
        <time>2019-08-09T13:53:33.456Z</time>
      </trkpt>
      <trkpt lat="45.45662" lon="4.78742">
        <ele>223.4</ele>
        <time>2019-08-09T13:53:33.801Z</time>
      </trkpt>
      <trkpt lat="45.45656" lon="4.78759">
        <ele>228.8</ele>
        <time>2019-08-09T13:53:34.068Z</time>
      </trkpt>
      <trkpt lat="45.45675" lon="4.78802">
        <ele>221.9</ele>
        <time>2019-08-09T13:53:34.782Z</time>
      </trkpt>
      <trkpt lat="45.45685" lon="4.78838">
        <ele>230.6</ele>
        <time>2019-08-09T13:53:35.326Z</time>
      </trkpt>
      <trkpt lat="45.45671" lon="4.78934">
        <ele>245.1</ele>
        <time>2019-08-09T13:53:36.704Z</time>
      </trkpt>
      <trkpt lat="45.45683" lon="4.78941">
        <ele>246.5</ele>
        <time>2019-08-09T13:53:36.964Z</time>
      </trkpt>
      <trkpt lat="45.45717" lon="4.7893">
        <ele>245</ele>
        <time>2019-08-09T13:53:37.663Z</time>
      </trkpt>
      <trkpt lat="45.4575" lon="4.78938">
        <ele>243.1</ele>
        <time>2019-08-09T13:53:38.334Z</time>
      </trkpt>
      <trkpt lat="45.45774" lon="4.78925">
        <ele>243.1</ele>
        <time>2019-08-09T13:53:38.848Z</time>
      </trkpt>
      <trkpt lat="45.45784" lon="4.78901">
        <ele>231.3</ele>
        <time>2019-08-09T13:53:39.240Z</time>
      </trkpt>
      <trkpt lat="45.45797" lon="4.78886">
        <ele>230</ele>
        <time>2019-08-09T13:53:39.575Z</time>
      </trkpt>
      <trkpt lat="45.4581" lon="4.78909">
        <ele>233.3</ele>
        <time>2019-08-09T13:53:39.990Z</time>
      </trkpt>
      <trkpt lat="45.45817" lon="4.78938">
        <ele>245.3</ele>
        <time>2019-08-09T13:53:40.421Z</time>
      </trkpt>
      <trkpt lat="45.45894" lon="4.78954">
        <ele>241.1</ele>
        <time>2019-08-09T13:53:41.980Z</time>
      </trkpt>
      <trkpt lat="45.45898" lon="4.78975">
        <ele>242</ele>
        <time>2019-08-09T13:53:42.286Z</time>
      </trkpt>
      <trkpt lat="45.45851" lon="4.79006">
        <ele>253.5</ele>
        <time>2019-08-09T13:53:43.324Z</time>
      </trkpt>
      <trkpt lat="45.4581" lon="4.7905">
        <ele>263.8</ele>
        <time>2019-08-09T13:53:44.352Z</time>
      </trkpt>
      <trkpt lat="45.45789" lon="4.79075">
        <ele>266.9</ele>
        <time>2019-08-09T13:53:44.900Z</time>
      </trkpt>
      <trkpt lat="45.45733" lon="4.79098">
        <ele>287.1</ele>
        <time>2019-08-09T13:53:46.068Z</time>
      </trkpt>
      <trkpt lat="45.45683" lon="4.79112">
        <ele>291.7</ele>
        <time>2019-08-09T13:53:47.089Z</time>
      </trkpt>
      <trkpt lat="45.45648" lon="4.79133">
        <ele>301.6</ele>
        <time>2019-08-09T13:53:47.850Z</time>
      </trkpt>
      <trkpt lat="45.45616" lon="4.79126">
        <ele>302.3</ele>
        <time>2019-08-09T13:53:48.499Z</time>
      </trkpt>
      <trkpt lat="45.45624" lon="4.79155">
        <ele>304.1</ele>
        <time>2019-08-09T13:53:48.937Z</time>
      </trkpt>
      <trkpt lat="45.45594" lon="4.79243">
        <ele>313.6</ele>
        <time>2019-08-09T13:53:50.312Z</time>
      </trkpt>
      <trkpt lat="45.45544" lon="4.79359">
        <ele>312.2</ele>
        <time>2019-08-09T13:53:52.226Z</time>
      </trkpt>
      <trkpt lat="45.45645" lon="4.7945">
        <ele>313.3</ele>
        <time>2019-08-09T13:53:54.620Z</time>
      </trkpt>
      <trkpt lat="45.45634" lon="4.79615">
        <ele>312.9</ele>
        <time>2019-08-09T13:53:56.950Z</time>
      </trkpt>
      <trkpt lat="45.45617" lon="4.79837">
        <ele>298.6</ele>
        <time>2019-08-09T13:54:00.089Z</time>
      </trkpt>
      <trkpt lat="45.45619" lon="4.79898">
        <ele>297</ele>
        <time>2019-08-09T13:54:00.947Z</time>
      </trkpt>
      <trkpt lat="45.45607" lon="4.79971">
        <ele>293.4</ele>
        <time>2019-08-09T13:54:02.001Z</time>
      </trkpt>
      <trkpt lat="45.45607" lon="4.79996">
        <ele>293</ele>
        <time>2019-08-09T13:54:02.352Z</time>
      </trkpt>
      <trkpt lat="45.45637" lon="4.8006">
        <ele>288</ele>
        <time>2019-08-09T13:54:03.434Z</time>
      </trkpt>
      <trkpt lat="45.45638" lon="4.80075">
        <ele>287.3</ele>
        <time>2019-08-09T13:54:03.646Z</time>
      </trkpt>
      <trkpt lat="45.45629" lon="4.80095">
        <ele>281.7</ele>
        <time>2019-08-09T13:54:03.980Z</time>
      </trkpt>
      <trkpt lat="45.45587" lon="4.80162">
        <ele>275.4</ele>
        <time>2019-08-09T13:54:05.243Z</time>
      </trkpt>
      <trkpt lat="45.45583" lon="4.80184">
        <ele>271.2</ele>
        <time>2019-08-09T13:54:05.562Z</time>
      </trkpt>
      <trkpt lat="45.45587" lon="4.80199">
        <ele>272.7</ele>
        <time>2019-08-09T13:54:05.788Z</time>
      </trkpt>
      <trkpt lat="45.4554" lon="4.80261">
        <ele>263.1</ele>
        <time>2019-08-09T13:54:07.071Z</time>
      </trkpt>
      <trkpt lat="45.45517" lon="4.80246">
        <ele>266.2</ele>
        <time>2019-08-09T13:54:07.578Z</time>
      </trkpt>
      <trkpt lat="45.45495" lon="4.80238">
        <ele>263.9</ele>
        <time>2019-08-09T13:54:08.033Z</time>
      </trkpt>
      <trkpt lat="45.45411" lon="4.80134">
        <ele>262.7</ele>
        <time>2019-08-09T13:54:10.263Z</time>
      </trkpt>
      <trkpt lat="45.45285" lon="4.79981">
        <ele>259.1</ele>
        <time>2019-08-09T13:54:13.580Z</time>
      </trkpt>
      <trkpt lat="45.45275" lon="4.79902">
        <ele>261.9</ele>
        <time>2019-08-09T13:54:14.708Z</time>
      </trkpt>
      <trkpt lat="45.45267" lon="4.79834">
        <ele>262.3</ele>
        <time>2019-08-09T13:54:15.677Z</time>
      </trkpt>
      <trkpt lat="45.45244" lon="4.79759">
        <ele>262.5</ele>
        <time>2019-08-09T13:54:16.828Z</time>
      </trkpt>
      <trkpt lat="45.45219" lon="4.79756">
        <ele>260.9</ele>
        <time>2019-08-09T13:54:17.331Z</time>
      </trkpt>
      <trkpt lat="45.45133" lon="4.79793">
        <ele>255.9</ele>
        <time>2019-08-09T13:54:19.131Z</time>
      </trkpt>
      <trkpt lat="45.45093" lon="4.79662">
        <ele>259.5</ele>
        <time>2019-08-09T13:54:21.139Z</time>
      </trkpt>
      <trkpt lat="45.45127" lon="4.79632">
        <ele>262.4</ele>
        <time>2019-08-09T13:54:21.940Z</time>
      </trkpt>
      <trkpt lat="45.45127" lon="4.79574">
        <ele>266.5</ele>
        <time>2019-08-09T13:54:22.755Z</time>
      </trkpt>
      <trkpt lat="45.45111" lon="4.7951">
        <ele>267.1</ele>
        <time>2019-08-09T13:54:23.710Z</time>
      </trkpt>
      <trkpt lat="45.45136" lon="4.79398">
        <ele>276.2</ele>
        <time>2019-08-09T13:54:25.362Z</time>
      </trkpt>
      <trkpt lat="45.4512" lon="4.79329">
        <ele>280</ele>
        <time>2019-08-09T13:54:26.384Z</time>
      </trkpt>
      <trkpt lat="45.45101" lon="4.79293">
        <ele>280.2</ele>
        <time>2019-08-09T13:54:27.017Z</time>
      </trkpt>
      <trkpt lat="45.45117" lon="4.79235">
        <ele>287.3</ele>
        <time>2019-08-09T13:54:27.893Z</time>
      </trkpt>
      <trkpt lat="45.45032" lon="4.79224">
        <ele>284</ele>
        <time>2019-08-09T13:54:29.603Z</time>
      </trkpt>
      <trkpt lat="45.45044" lon="4.79158">
        <ele>293.2</ele>
        <time>2019-08-09T13:54:30.561Z</time>
      </trkpt>
      <trkpt lat="45.45033" lon="4.79123">
        <ele>294.6</ele>
        <time>2019-08-09T13:54:31.100Z</time>
      </trkpt>
      <trkpt lat="45.45051" lon="4.78943">
        <ele>303.4</ele>
        <time>2019-08-09T13:54:33.656Z</time>
      </trkpt>
      <trkpt lat="45.45045" lon="4.78832">
        <ele>301.9</ele>
        <time>2019-08-09T13:54:35.221Z</time>
      </trkpt>
      <trkpt lat="45.45054" lon="4.78724">
        <ele>294.7</ele>
        <time>2019-08-09T13:54:36.750Z</time>
      </trkpt>
      <trkpt lat="45.45102" lon="4.78619">
        <ele>282.9</ele>
        <time>2019-08-09T13:54:38.512Z</time>
      </trkpt>
      <trkpt lat="45.45081" lon="4.78557">
        <ele>276.3</ele>
        <time>2019-08-09T13:54:39.480Z</time>
      </trkpt>
      <trkpt lat="45.45148" lon="4.78542">
        <ele>277</ele>
        <time>2019-08-09T13:54:40.839Z</time>
      </trkpt>
      <trkpt lat="45.45211" lon="4.7854">
        <ele>271.1</ele>
        <time>2019-08-09T13:54:42.102Z</time>
      </trkpt>
      <trkpt lat="45.45245" lon="4.78505">
        <ele>267.3</ele>
        <time>2019-08-09T13:54:42.942Z</time>
      </trkpt>
      <trkpt lat="45.45304" lon="4.78493">
        <ele>251.5</ele>
        <time>2019-08-09T13:54:44.136Z</time>
      </trkpt>
      <trkpt lat="45.45343" lon="4.78459">
        <ele>232.6</ele>
        <time>2019-08-09T13:54:45.052Z</time>
      </trkpt>
      <trkpt lat="45.45331" lon="4.78368">
        <ele>240.4</ele>
        <time>2019-08-09T13:54:46.354Z</time>
      </trkpt>
      <trkpt lat="45.45312" lon="4.78307">
        <ele>228.7</ele>
        <time>2019-08-09T13:54:47.292Z</time>
      </trkpt>
      <trkpt lat="45.45309" lon="4.78275">
        <ele>225.4</ele>
        <time>2019-08-09T13:54:47.746Z</time>
      </trkpt>
      <trkpt lat="45.45327" lon="4.78269">
        <ele>220.2</ele>
        <time>2019-08-09T13:54:48.116Z</time>
      </trkpt>
      <trkpt lat="45.45356" lon="4.78266">
        <ele>206.2</ele>
        <time>2019-08-09T13:54:48.699Z</time>
      </trkpt>
      <trkpt lat="45.45387" lon="4.78275">
        <ele>202.9</ele>
        <time>2019-08-09T13:54:49.333Z</time>
      </trkpt>
      <trkpt lat="45.45414" lon="4.7827">
        <ele>198.9</ele>
        <time>2019-08-09T13:54:49.879Z</time>
      </trkpt>
      <trkpt lat="45.4542" lon="4.78247">
        <ele>189.1</ele>
        <time>2019-08-09T13:54:50.224Z</time>
      </trkpt>
      <trkpt lat="45.45431" lon="4.78217">
        <ele>178.9</ele>
        <time>2019-08-09T13:54:50.700Z</time>
      </trkpt>
      <trkpt lat="45.45443" lon="4.78206">
        <ele>176.4</ele>
        <time>2019-08-09T13:54:50.986Z</time>
      </trkpt>
      <trkpt lat="45.45496" lon="4.78314">
        <ele>180.9</ele>
        <time>2019-08-09T13:54:52.839Z</time>
      </trkpt>
      <trkpt lat="45.45523" lon="4.7838">
        <ele>174.3</ele>
        <time>2019-08-09T13:54:53.913Z</time>
      </trkpt>
      <trkpt lat="45.45557" lon="4.78393">
        <ele>170.1</ele>
        <time>2019-08-09T13:54:54.618Z</time>
      </trkpt>
      <trkpt lat="45.4557" lon="4.78412">
        <ele>167.5</ele>
        <time>2019-08-09T13:54:54.991Z</time>
      </trkpt>
      <trkpt lat="45.45573" lon="4.78455">
        <ele>179.4</ele>
        <time>2019-08-09T13:54:55.598Z</time>
      </trkpt>
      <trkpt lat="45.45665" lon="4.78477">
        <ele>164</ele>
        <time>2019-08-09T13:54:57.467Z</time>
      </trkpt>
      <trkpt lat="45.45695" lon="4.78433">
        <ele>152.6</ele>
        <time>2019-08-09T13:54:58.330Z</time>
      </trkpt>
      <trkpt lat="45.45667" lon="4.78399">
        <ele>148.9</ele>
        <time>2019-08-09T13:54:59.065Z</time>
      </trkpt>
      <trkpt lat="45.45556" lon="4.78235">
        <ele>153.3</ele>
        <time>2019-08-09T13:55:02.274Z</time>
      </trkpt>
      <trkpt lat="45.45739" lon="4.78258">
        <ele>145.7</ele>
        <time>2019-08-09T13:55:05.956Z</time>
      </trkpt>
      <trkpt lat="45.45759" lon="4.78261">
        <ele>145.7</ele>
        <time>2019-08-09T13:55:06.362Z</time>
      </trkpt>
      <trkpt lat="45.45863" lon="4.78284">
        <ele>146.1</ele>
        <time>2019-08-09T13:55:08.471Z</time>
      </trkpt>
      <trkpt lat="45.45875" lon="4.78264">
        <ele>146.2</ele>
        <time>2019-08-09T13:55:08.841Z</time>
      </trkpt>
      <trkpt lat="45.45884" lon="4.7823">
        <ele>144.5</ele>
        <time>2019-08-09T13:55:09.352Z</time>
      </trkpt>
      <trkpt lat="45.45907" lon="4.78188">
        <ele>143.3</ele>
        <time>2019-08-09T13:55:10.092Z</time>
      </trkpt>
      <trkpt lat="45.45896" lon="4.78133">
        <ele>142</ele>
        <time>2019-08-09T13:55:10.900Z</time>
      </trkpt>
      <trkpt lat="45.45878" lon="4.78091">
        <ele>142</ele>
        <time>2019-08-09T13:55:11.592Z</time>
      </trkpt>
      <trkpt lat="45.45866" lon="4.7807">
        <ele>142.7</ele>
        <time>2019-08-09T13:55:11.965Z</time>
      </trkpt>
      <trkpt lat="45.4585" lon="4.78046">
        <ele>143.2</ele>
        <time>2019-08-09T13:55:12.437Z</time>
      </trkpt>
      <trkpt lat="45.45834" lon="4.78029">
        <ele>143.9</ele>
        <time>2019-08-09T13:55:12.842Z</time>
      </trkpt>
      <trkpt lat="45.45822" lon="4.7802">
        <ele>144.1</ele>
        <time>2019-08-09T13:55:13.112Z</time>
      </trkpt>
      <trkpt lat="45.45815" lon="4.78021">
        <ele>143.9</ele>
        <time>2019-08-09T13:55:13.253Z</time>
      </trkpt>
      <trkpt lat="45.45808" lon="4.78043">
        <ele>143.2</ele>
        <time>2019-08-09T13:55:13.595Z</time>
      </trkpt>
      <trkpt lat="45.4578" lon="4.78028">
        <ele>143</ele>
        <time>2019-08-09T13:55:14.183Z</time>
      </trkpt>
      <trkpt lat="45.45757" lon="4.78016">
        <ele>142.5</ele>
        <time>2019-08-09T13:55:14.695Z</time>
      </trkpt>
    </trkseg>
  </trk>
</gpx>